createdAt,value
2018-04-06T00:02:13.215Z,6.40
2018-04-06T00:04:40.654Z,6.40
2018-04-06T00:07:08.078Z,6.30
2018-04-06T00:09:35.507Z,6.20
2018-04-06T00:12:02.954Z,6.10
2018-04-06T00:14:30.393Z,6.00
2018-04-06T00:16:57.825Z,6.10
2018-04-06T00:19:25.262Z,6.10
2018-04-06T00:21:52.693Z,6.20
2018-04-06T00:24:20.897Z,6.20
2018-04-06T00:26:48.321Z,6.20
2018-04-06T00:29:16.525Z,6.10
2018-04-06T00:31:43.952Z,6.10
2018-04-06T00:36:45.755Z,6.00
2018-04-06T00:39:13.190Z,5.90
2018-04-06T00:41:41.387Z,6.00
2018-04-06T00:44:08.821Z,6.00
2018-04-06T00:46:37.013Z,6.00
2018-04-06T00:49:04.450Z,5.90
2018-04-06T00:51:32.645Z,5.90
2018-04-06T00:54:00.086Z,5.80
2018-04-06T00:56:28.280Z,5.80
2018-04-06T00:58:55.715Z,5.70
2018-04-06T01:01:23.912Z,5.80
2018-04-06T01:03:51.350Z,5.70
2018-04-06T01:06:18.790Z,5.60
2018-04-06T01:08:46.995Z,5.50
2018-04-06T01:11:14.417Z,5.50
2018-04-06T01:13:42.617Z,5.50
2018-04-06T01:16:10.044Z,5.50
2018-04-06T01:18:38.250Z,5.50
2018-04-06T01:21:05.679Z,5.40
2018-04-06T01:23:33.881Z,5.30
2018-04-06T01:26:02.146Z,5.30
2018-04-06T01:28:29.569Z,5.30
2018-04-06T01:30:57.010Z,5.40
2018-04-06T01:33:24.481Z,5.30
2018-04-06T01:35:51.913Z,5.30
2018-04-06T01:38:19.346Z,5.20
2018-04-06T01:40:46.849Z,5.30
2018-04-06T01:43:14.279Z,5.30
2018-04-06T01:45:41.718Z,5.30
2018-04-06T01:48:09.154Z,5.30
2018-04-06T01:50:36.596Z,5.10
2018-04-06T01:53:04.790Z,5.10
2018-04-06T01:55:32.229Z,5.00
2018-04-06T01:58:00.427Z,5.00
2018-04-06T02:00:27.858Z,5.00
2018-04-06T02:02:56.052Z,5.10
2018-04-06T02:05:23.488Z,5.10
2018-04-06T02:07:51.687Z,5.10
2018-04-06T02:10:19.118Z,5.10
2018-04-06T02:12:47.309Z,5.00
2018-04-06T02:15:14.749Z,5.00
2018-04-06T02:17:42.963Z,5.00
2018-04-06T02:20:10.393Z,5.00
2018-04-06T02:22:37.821Z,5.00
2018-04-06T02:25:06.029Z,4.80
2018-04-06T02:27:33.466Z,4.80
2018-04-06T02:30:01.671Z,4.70
2018-04-06T02:32:29.102Z,4.70
2018-04-06T02:34:57.307Z,4.60
2018-04-06T02:37:24.735Z,4.60
2018-04-06T02:39:52.162Z,4.60
2018-04-06T02:42:20.363Z,4.60
2018-04-06T02:44:47.801Z,4.60
2018-04-06T02:47:15.994Z,4.50
2018-04-06T02:49:43.430Z,4.40
2018-04-06T02:52:11.648Z,4.50
2018-04-06T02:54:39.081Z,4.40
2018-04-06T02:57:06.513Z,4.50
2018-04-06T02:59:34.716Z,4.50
2018-04-06T03:02:02.153Z,4.50
2018-04-06T03:04:30.375Z,4.50
2018-04-06T03:06:57.819Z,4.50
2018-04-06T03:09:25.258Z,4.50
2018-04-06T03:11:52.710Z,4.40
2018-04-06T03:14:20.902Z,4.40
2018-04-06T03:16:48.346Z,4.40
2018-04-06T03:19:15.770Z,4.40
2018-04-06T03:21:43.978Z,4.10
2018-04-06T03:24:11.405Z,4.10
2018-04-06T03:26:39.605Z,4.10
2018-04-06T03:29:07.044Z,4.00
2018-04-06T03:31:35.248Z,4.00
2018-04-06T03:34:02.678Z,4.00
2018-04-06T03:36:30.120Z,4.00
2018-04-06T03:38:58.310Z,4.10
2018-04-06T03:41:25.746Z,4.00
2018-04-06T03:43:53.941Z,4.00
2018-04-06T03:46:21.385Z,3.90
2018-04-06T03:48:49.588Z,4.00
2018-04-06T03:51:17.029Z,4.00
2018-04-06T03:53:44.462Z,3.90
2018-04-06T03:56:12.662Z,3.90
2018-04-06T03:58:40.110Z,3.90
2018-04-06T04:01:07.542Z,3.90
2018-04-06T04:03:34.996Z,3.80
2018-04-06T04:06:02.452Z,3.80
2018-04-06T04:08:29.877Z,3.70
2018-04-06T04:10:57.302Z,3.80
2018-04-06T04:13:24.738Z,3.80
2018-04-06T04:15:52.162Z,3.90
2018-04-06T04:18:19.594Z,3.90
2018-04-06T04:20:47.018Z,4.00
2018-04-06T04:23:14.454Z,4.00
2018-04-06T04:25:42.654Z,4.00
2018-04-06T04:28:10.090Z,3.90
2018-04-06T04:30:38.290Z,3.80
2018-04-06T04:33:05.739Z,3.80
2018-04-06T04:35:33.152Z,3.80
2018-04-06T04:38:00.586Z,3.80
2018-04-06T04:40:28.014Z,3.90
2018-04-06T04:42:55.448Z,3.90
2018-04-06T04:45:23.645Z,4.00
2018-04-06T04:47:51.078Z,4.00
2018-04-06T04:50:18.506Z,4.00
2018-04-06T04:52:45.947Z,3.90
2018-04-06T04:55:13.376Z,4.00
2018-04-06T04:57:40.803Z,4.00
2018-04-06T05:00:08.249Z,4.00
2018-04-06T05:02:36.434Z,4.00
2018-04-06T05:05:03.877Z,4.00
2018-04-06T05:07:32.074Z,3.90
2018-04-06T05:09:59.528Z,3.90
2018-04-06T05:12:26.950Z,3.80
2018-04-06T05:14:55.347Z,3.80
2018-04-06T05:17:23.546Z,3.90
2018-04-06T05:19:50.989Z,3.90
2018-04-06T05:22:18.415Z,3.90
2018-04-06T05:24:45.849Z,3.90
2018-04-06T05:27:13.281Z,4.00
2018-04-06T05:29:40.770Z,4.10
2018-04-06T05:32:08.198Z,4.10
2018-04-06T05:34:35.629Z,4.20
2018-04-06T05:37:03.071Z,4.30
2018-04-06T05:39:31.285Z,4.40
2018-04-06T05:41:58.713Z,4.40
2018-04-06T05:44:26.149Z,4.40
2018-04-06T05:46:54.335Z,4.30
2018-04-06T05:49:22.556Z,4.40
2018-04-06T05:51:49.994Z,4.40
2018-04-06T05:54:17.470Z,4.50
2018-04-06T05:56:44.900Z,4.60
2018-04-06T05:59:12.325Z,4.60
2018-04-06T06:01:40.535Z,4.80
2018-04-06T06:04:07.963Z,4.80
2018-04-06T06:06:36.161Z,4.90
2018-04-06T06:09:03.590Z,5.00
2018-04-06T06:11:31.026Z,5.00
2018-04-06T06:13:59.226Z,5.20
2018-04-06T06:16:26.664Z,5.20
2018-04-06T06:18:54.857Z,5.30
2018-04-06T06:21:22.294Z,5.20
2018-04-06T06:23:50.491Z,5.40
2018-04-06T06:26:17.929Z,5.40
2018-04-06T06:28:46.121Z,5.70
2018-04-06T06:31:13.577Z,5.70
2018-04-06T06:33:41.007Z,5.80
2018-04-06T06:36:09.210Z,6.10
2018-04-06T06:38:36.647Z,6.00
2018-04-06T06:41:04.859Z,6.30
2018-04-06T06:43:32.290Z,6.30
2018-04-06T06:45:59.725Z,6.40
2018-04-06T06:48:27.926Z,6.60
2018-04-06T06:50:55.365Z,6.60
2018-04-06T06:53:22.814Z,6.70
2018-04-06T06:55:51.018Z,6.90
2018-04-06T06:58:18.455Z,6.90
2018-04-06T07:00:45.893Z,7.00
2018-04-06T07:03:14.102Z,7.20
2018-04-06T07:05:41.545Z,7.20
2018-04-06T07:08:09.742Z,7.50
2018-04-06T07:10:37.186Z,7.50
2018-04-06T07:13:04.623Z,7.60
2018-04-06T07:15:32.851Z,7.80
2018-04-06T07:18:00.278Z,7.80
2018-04-06T07:20:27.713Z,7.90
2018-04-06T07:22:55.164Z,8.00
2018-04-06T07:25:23.366Z,8.30
2018-04-06T07:27:50.815Z,8.20
2018-04-06T07:30:18.241Z,8.40
2018-04-06T07:32:46.454Z,8.40
2018-04-06T07:35:13.893Z,8.40
2018-04-06T07:37:41.338Z,8.50
2018-04-06T07:40:08.778Z,8.40
2018-04-06T07:42:36.982Z,8.60
2018-04-06T07:45:04.422Z,8.60
2018-04-06T07:47:32.630Z,8.80
2018-04-06T07:50:00.071Z,8.80
2018-04-06T07:52:27.515Z,9.00
2018-04-06T07:54:54.958Z,9.10
2018-04-06T07:57:23.174Z,9.40
2018-04-06T07:59:50.604Z,9.30
2018-04-06T08:02:18.053Z,9.50
2018-04-06T08:04:45.488Z,9.60
2018-04-06T08:07:12.925Z,9.60
2018-04-06T08:09:40.363Z,9.70
2018-04-06T08:12:07.818Z,9.90
2018-04-06T08:14:35.258Z,10.00
2018-04-06T08:17:02.711Z,10.10
2018-04-06T08:19:30.157Z,10.20
2018-04-06T08:21:57.582Z,10.30
2018-04-06T08:24:25.800Z,10.40
2018-04-06T08:26:53.241Z,10.40
2018-04-06T08:29:20.689Z,10.50
2018-04-06T08:31:48.886Z,10.70
2018-04-06T08:34:16.327Z,10.60
2018-04-06T08:36:43.770Z,10.80
2018-04-06T08:39:11.977Z,11.00
2018-04-06T08:41:39.406Z,11.00
2018-04-06T08:44:06.845Z,11.10
2018-04-06T08:46:35.055Z,11.20
2018-04-06T08:49:02.495Z,11.20
2018-04-06T08:51:29.926Z,11.30
2018-04-06T08:53:58.137Z,11.30
2018-04-06T08:56:25.577Z,11.30
2018-04-06T08:58:53.026Z,11.40
2018-04-06T09:01:21.226Z,11.50
2018-04-06T09:03:48.672Z,11.40
2018-04-06T09:06:16.105Z,11.50
2018-04-06T09:08:44.320Z,11.60
2018-04-06T09:11:11.765Z,11.60
2018-04-06T09:13:39.206Z,11.70
2018-04-06T09:16:07.396Z,11.80
2018-04-06T09:18:34.840Z,11.80
2018-04-06T09:21:02.278Z,11.90
2018-04-06T09:23:30.488Z,12.00
2018-04-06T09:25:57.928Z,12.00
2018-04-06T09:28:25.357Z,12.10
2018-04-06T09:30:53.561Z,12.20
2018-04-06T09:33:21.002Z,12.20
2018-04-06T09:35:49.208Z,12.30
2018-04-06T09:38:16.643Z,12.20
2018-04-06T09:40:44.081Z,12.20
2018-04-06T09:43:12.278Z,12.30
2018-04-06T09:45:39.721Z,12.30
2018-04-06T09:48:07.154Z,12.40
2018-04-06T09:50:34.594Z,12.50
2018-04-06T09:53:02.025Z,12.60
2018-04-06T09:55:29.457Z,12.70
2018-04-06T09:57:56.894Z,12.80
2018-04-06T10:00:30.862Z,12.90
2018-04-06T10:02:58.302Z,12.90
2018-04-06T10:05:25.742Z,13.00
2018-04-06T10:07:53.169Z,13.10
2018-04-06T10:10:21.374Z,13.00
2018-04-06T10:12:48.805Z,13.00
2018-04-06T10:15:17.022Z,13.20
2018-04-06T10:17:44.461Z,13.20
2018-04-06T10:20:11.902Z,13.30
2018-04-06T10:22:39.331Z,13.30
2018-04-06T10:25:06.767Z,13.40
2018-04-06T10:27:34.199Z,13.40
2018-04-06T10:30:01.642Z,13.40
2018-04-06T10:32:29.069Z,13.60
2018-04-06T10:34:56.506Z,13.90
2018-04-06T10:37:23.938Z,14.20
2018-04-06T10:39:51.374Z,14.60
2018-04-06T10:42:18.810Z,14.80
2018-04-06T10:44:46.256Z,15.00
2018-04-06T10:47:13.677Z,15.40
2018-04-06T10:49:41.106Z,15.70
2018-04-06T10:52:08.552Z,16.10
2018-04-06T10:54:35.987Z,16.30
2018-04-06T10:57:03.427Z,16.40
2018-04-06T10:59:31.631Z,16.40
2018-04-06T11:01:59.073Z,16.40
2018-04-06T11:04:26.520Z,16.40
2018-04-06T11:06:54.729Z,16.50
2018-04-06T11:09:22.158Z,16.50
2018-04-06T11:11:49.598Z,16.70
2018-04-06T11:14:17.800Z,16.80
2018-04-06T11:16:45.240Z,16.70
2018-04-06T11:19:12.660Z,16.60
2018-04-06T11:21:40.103Z,16.30
2018-04-06T11:24:07.532Z,16.10
2018-04-06T11:26:34.969Z,15.80
2018-04-06T11:29:02.410Z,15.60
2018-04-06T11:31:30.613Z,15.40
2018-04-06T11:33:58.046Z,15.40
2018-04-06T11:36:26.260Z,15.30
2018-04-06T11:38:53.695Z,15.20
2018-04-06T11:41:21.126Z,15.20
2018-04-06T11:43:49.329Z,15.10
2018-04-06T11:46:16.761Z,15.10
2018-04-06T11:48:44.234Z,15.10
2018-04-06T11:51:11.671Z,15.10
2018-04-06T11:53:39.862Z,15.20
2018-04-06T11:56:07.294Z,15.20
2018-04-06T11:58:35.499Z,15.10
2018-04-06T12:01:02.928Z,15.10
2018-04-06T12:03:31.127Z,15.10
2018-04-06T12:05:58.574Z,15.10
2018-04-06T12:08:26.013Z,15.20
2018-04-06T12:10:54.206Z,15.30
2018-04-06T12:13:21.643Z,15.30
2018-04-06T12:15:49.837Z,15.30
2018-04-06T12:18:17.274Z,15.30
2018-04-06T12:20:45.470Z,15.30
2018-04-06T12:23:12.905Z,15.30
2018-04-06T12:25:41.101Z,15.30
2018-04-06T12:28:08.545Z,15.20
2018-04-06T12:30:35.982Z,15.30
2018-04-06T12:33:04.185Z,15.40
2018-04-06T12:35:31.618Z,15.40
2018-04-06T12:37:59.818Z,15.50
2018-04-06T12:40:27.258Z,15.50
2018-04-06T12:42:54.698Z,15.60
2018-04-06T12:45:22.898Z,15.60
2018-04-06T12:47:50.333Z,15.60
2018-04-06T12:50:18.536Z,15.70
2018-04-06T12:52:45.981Z,15.70
2018-04-06T12:55:13.417Z,15.70
2018-04-06T12:57:41.609Z,15.90
2018-04-06T13:00:09.053Z,15.90
2018-04-06T13:02:37.261Z,16.00
2018-04-06T13:05:04.698Z,16.00
2018-04-06T13:07:32.128Z,16.00
2018-04-06T13:10:00.376Z,16.10
2018-04-06T13:12:27.770Z,16.10
2018-04-06T13:14:55.974Z,16.20
2018-04-06T13:17:23.401Z,16.20
2018-04-06T13:19:50.842Z,16.30
2018-04-06T13:22:19.042Z,16.30
2018-04-06T13:24:46.486Z,16.30
2018-04-06T13:27:13.922Z,16.30
2018-04-06T13:29:42.126Z,16.50
2018-04-06T13:32:09.554Z,16.40
2018-04-06T13:34:37.759Z,16.50
2018-04-06T13:37:05.190Z,16.50
2018-04-06T13:39:33.393Z,16.60
2018-04-06T13:42:00.825Z,16.60
2018-04-06T13:44:29.034Z,16.70
2018-04-06T13:46:56.470Z,16.70
2018-04-06T13:49:23.913Z,16.80
2018-04-06T13:51:52.109Z,16.90
2018-04-06T13:54:19.554Z,16.90
2018-04-06T13:56:46.987Z,17.00
2018-04-06T13:59:15.190Z,17.30
2018-04-06T14:01:42.629Z,17.30
2018-04-06T14:04:10.842Z,17.50
2018-04-06T14:06:38.272Z,17.50
2018-04-06T14:09:06.666Z,17.50
2018-04-06T14:11:34.098Z,17.60
2018-04-06T14:14:01.534Z,17.70
2018-04-06T14:16:28.978Z,17.70
2018-04-06T14:18:56.416Z,17.80
2018-04-06T14:21:23.846Z,17.90
2018-04-06T14:23:51.277Z,17.90
2018-04-06T14:26:18.718Z,17.90
2018-04-06T14:28:46.917Z,18.10
2018-04-06T14:31:14.380Z,18.00
2018-04-06T14:33:42.558Z,18.60
2018-04-06T14:36:10.001Z,18.50
2018-04-06T14:38:37.431Z,18.90
2018-04-06T14:41:05.643Z,20.60
2018-04-06T14:43:33.079Z,20.60
2018-04-06T14:46:00.530Z,21.80
2018-04-06T14:48:28.732Z,24.00
2018-04-06T14:50:56.173Z,24.00
2018-04-06T14:53:23.617Z,24.60
2018-04-06T14:55:51.818Z,25.10
2018-04-06T14:58:19.302Z,25.00
2018-04-06T15:00:46.717Z,25.50
2018-04-06T15:03:14.156Z,26.60
2018-04-06T15:05:42.359Z,28.50
2018-04-06T15:08:09.802Z,28.40
2018-04-06T15:10:37.229Z,29.50
2018-04-06T15:13:05.435Z,31.70
2018-04-06T15:15:32.862Z,31.60
2018-04-06T15:18:01.070Z,33.10
2018-04-06T15:20:28.514Z,33.00
2018-04-06T15:22:55.950Z,33.40
2018-04-06T15:25:24.161Z,34.00
2018-04-06T15:27:51.602Z,34.00
2018-04-06T15:30:19.038Z,34.50
2018-04-06T15:32:47.247Z,34.80
2018-04-06T15:35:14.678Z,34.70
2018-04-06T15:37:42.877Z,35.70
2018-04-06T15:40:10.314Z,35.60
2018-04-06T15:42:37.756Z,35.80
2018-04-06T15:45:05.953Z,35.40
2018-04-06T15:47:33.392Z,35.40
2018-04-06T15:50:01.596Z,33.50
2018-04-06T15:52:29.038Z,33.40
2018-04-06T15:54:56.465Z,31.50
2018-04-06T15:57:24.674Z,27.60
2018-04-06T15:59:52.111Z,27.50
2018-04-06T16:02:19.550Z,26.20
2018-04-06T16:04:47.751Z,23.80
2018-04-06T16:07:15.193Z,23.80
2018-04-06T16:09:43.399Z,22.30
2018-04-06T16:12:10.866Z,22.20
2018-04-06T16:14:38.296Z,21.70
2018-04-06T16:17:05.732Z,21.10
2018-04-06T16:19:33.933Z,20.30
2018-04-06T16:22:01.365Z,20.20
2018-04-06T16:24:29.573Z,19.60
2018-04-06T16:26:57.001Z,19.50
2018-04-06T16:29:24.441Z,19.30
2018-04-06T16:31:52.648Z,18.90
2018-04-06T16:34:20.087Z,18.80
2018-04-06T16:36:47.513Z,18.70
2018-04-06T16:39:14.961Z,18.60
2018-04-06T16:41:42.399Z,18.40
2018-04-06T16:44:09.848Z,18.20
2018-04-06T16:46:37.278Z,18.10
2018-04-06T16:49:04.712Z,17.90
2018-04-06T16:51:33.022Z,17.60
2018-04-06T16:54:00.448Z,17.60
2018-04-06T16:56:27.884Z,17.50
2018-04-06T16:58:55.317Z,17.50
2018-04-06T17:01:22.757Z,17.40
2018-04-06T17:03:50.202Z,17.20
2018-04-06T17:06:17.643Z,17.20
2018-04-06T17:08:45.082Z,17.10
2018-04-06T17:11:12.509Z,17.00
2018-04-06T17:13:39.945Z,17.00
2018-04-06T17:16:07.374Z,16.80
2018-04-06T17:18:34.809Z,16.60
2018-04-06T17:21:02.247Z,16.60
2018-04-06T17:23:29.681Z,16.50
2018-04-06T17:25:57.113Z,16.40
2018-04-06T17:28:24.553Z,16.30
2018-04-06T17:30:51.990Z,16.30
2018-04-06T17:33:19.433Z,16.20
2018-04-06T17:35:46.886Z,16.20
2018-04-06T17:38:15.078Z,16.00
2018-04-06T17:40:42.521Z,16.00
2018-04-06T17:43:10.722Z,15.90
2018-04-06T17:45:38.163Z,15.80
2018-04-06T17:48:06.369Z,15.70
2018-04-06T17:50:33.807Z,15.70
2018-04-06T17:53:01.241Z,15.60
2018-04-06T17:55:29.466Z,15.50
2018-04-06T17:57:56.944Z,15.50
2018-04-06T18:00:24.330Z,15.40
2018-04-06T18:02:52.521Z,15.20
2018-04-06T18:05:19.962Z,15.20
2018-04-06T18:07:48.162Z,15.10
2018-04-06T18:10:15.605Z,15.10
2018-04-06T18:12:43.042Z,15.10
2018-04-06T18:15:11.248Z,15.00
2018-04-06T18:17:38.682Z,15.00
2018-04-06T18:20:06.129Z,14.90
2018-04-06T18:22:34.340Z,14.80
2018-04-06T18:25:01.782Z,14.80
2018-04-06T18:27:29.213Z,14.70
2018-04-06T18:29:57.405Z,14.60
2018-04-06T18:32:24.852Z,14.60
2018-04-06T18:34:53.067Z,14.50
2018-04-06T18:37:20.498Z,14.50
2018-04-06T18:39:47.934Z,14.50
2018-04-06T18:42:16.142Z,14.40
2018-04-06T18:44:43.692Z,14.30
2018-04-06T18:47:11.117Z,14.30
2018-04-06T18:49:39.338Z,14.20
2018-04-06T18:52:06.804Z,14.20
2018-04-06T18:54:34.950Z,14.10
2018-04-06T18:57:02.442Z,14.10
2018-04-06T18:59:30.342Z,14.10
2018-04-06T19:01:58.656Z,14.00
2018-04-06T19:04:26.083Z,13.90
2018-04-06T19:06:54.317Z,13.80
2018-04-06T19:09:21.749Z,13.80
2018-04-06T19:11:49.195Z,13.90
2018-04-06T19:14:16.636Z,13.80
2018-04-06T19:16:44.875Z,13.70
2018-04-06T19:19:12.312Z,13.70
2018-04-06T19:21:39.750Z,13.70
2018-04-06T19:24:07.701Z,13.70
2018-04-06T19:26:35.137Z,13.60
2018-04-06T19:29:03.346Z,13.60
2018-04-06T19:31:30.781Z,13.50
2018-04-06T19:33:58.210Z,13.50
2018-04-06T19:36:26.465Z,13.50
2018-04-06T19:38:53.854Z,13.40
2018-04-06T19:41:22.478Z,13.40
2018-04-06T19:43:49.909Z,13.40
2018-04-06T19:46:17.342Z,13.30
2018-04-06T19:48:45.541Z,13.30
2018-04-06T19:51:12.969Z,13.20
2018-04-06T19:53:41.181Z,13.20
2018-04-06T19:56:08.613Z,13.20
2018-04-06T19:58:36.064Z,13.20
2018-04-06T20:01:04.266Z,13.10
2018-04-06T20:03:31.697Z,13.10
2018-04-06T20:05:59.898Z,13.00
2018-04-06T20:08:27.372Z,13.00
2018-04-06T20:10:54.845Z,13.00
2018-04-06T20:13:22.285Z,12.90
2018-04-06T20:15:49.724Z,12.90
2018-04-06T20:18:17.164Z,12.90
2018-04-06T20:20:44.596Z,12.80
2018-04-06T20:23:12.808Z,12.80
2018-04-06T20:25:40.238Z,12.70
2018-04-06T20:28:07.694Z,12.70
2018-04-06T20:30:35.897Z,12.60
2018-04-06T20:33:03.334Z,12.60
2018-04-06T20:35:30.777Z,12.60
2018-04-06T20:37:58.977Z,12.50
2018-04-06T20:40:26.426Z,12.50
2018-04-06T20:42:53.873Z,12.40
2018-04-06T20:45:21.314Z,12.40
2018-04-06T20:47:49.791Z,12.30
2018-04-06T20:50:17.233Z,12.30
2018-04-06T20:52:44.674Z,12.30
2018-04-06T20:55:12.110Z,12.30
2018-04-06T20:57:39.593Z,12.20
2018-04-06T21:00:06.980Z,12.20
2018-04-06T21:02:34.427Z,12.10
2018-04-06T21:05:02.638Z,12.10
2018-04-06T22:29:27.186Z,12.10
2018-04-06T22:31:54.625Z,11.00
2018-04-06T22:34:22.069Z,11.00
2018-04-06T22:36:49.510Z,11.00
2018-04-06T22:39:16.954Z,11.00
2018-04-06T22:41:44.397Z,11.00
2018-04-06T22:44:12.611Z,10.90
2018-04-06T22:46:40.046Z,10.90
2018-04-06T22:49:07.508Z,10.90
2018-04-06T22:51:34.945Z,10.90
2018-04-06T22:54:03.153Z,10.90
2018-04-06T22:56:30.617Z,10.80
2018-04-06T22:58:58.054Z,10.90
2018-04-06T23:01:25.508Z,10.90
2018-04-06T23:03:52.955Z,10.90
2018-04-06T23:06:20.402Z,10.80
2018-04-06T23:08:48.605Z,10.80
2018-04-06T23:11:16.056Z,10.70
2018-04-06T23:13:43.489Z,10.70
2018-04-06T23:16:11.701Z,10.70
2018-04-06T23:18:39.141Z,10.60
2018-04-06T23:21:06.591Z,10.60
2018-04-06T23:23:34.077Z,10.60
2018-04-06T23:26:01.631Z,10.60
2018-04-06T23:28:29.074Z,10.60
2018-04-06T23:30:56.530Z,10.60
2018-04-06T23:33:23.961Z,10.60
2018-04-06T23:35:52.175Z,10.50
2018-04-06T23:38:19.613Z,10.50
2018-04-06T23:40:47.066Z,10.40
2018-04-06T23:43:14.497Z,10.40
2018-04-06T23:45:42.704Z,10.30
2018-04-06T23:48:10.134Z,10.30
2018-04-06T23:50:37.582Z,10.30
2018-04-06T23:53:05.784Z,10.30
2018-04-06T23:55:33.277Z,10.30
2018-04-06T23:58:00.710Z,10.30
